LFKJ/AJA METAR and TAF weather

Enter ICAO airport designator
Station Type Date Time Source
LFKJ METAR 2019/08/17 11:00 UTC NOAA

LFKJ 171100Z AUTO 23011KT CAVOK 27/20 Q1017 NOSIG


Station Type Date Time Source
LFKJ Decoded METAR 2019/08/17 11:00 UTC NOAA

Station name not available
Aug 17, 2019 - 07:00 AM EDT / 2019.08.17 1100 UTC
Wind: from the SW (230 degrees) at 13 MPH (11 KT):0
Visibility: greater than 7 mile(s):0
Temperature: 80 F (27 C)
Dew Point: 68 F (20 C)
Relative Humidity: 65%
Pressure (altimeter): 30.03 in. Hg (1017 hPa)
ob: LFKJ 171100Z AUTO 23011KT CAVOK 27/20 Q1017 NOSIG
cycle: 11

Station Type Date Time Source
LFKJ TAF 2019/08/17 09:46 UTC NOAA

TAF LFKJ 170800Z 1709/1809 22010KT CAVOK
BECMG 1718/1720 05004KT

Example: see airport list